sensor_id;sensor_type;location;lat;lon;timestamp;temperature;humidity
76104;HTU21D;64831;44.870;37.336;2023-09-18T00:02:00;16.00;58.37
76104;HTU21D;64831;44.870;37.336;2023-09-18T00:04:26;16.00;58.25
76104;HTU21D;64831;44.870;37.336;2023-09-18T00:06:51;15.98;58.30
76104;HTU21D;64831;44.870;37.336;2023-09-18T00:09:17;15.93;58.77
76104;HTU21D;64831;44.870;37.336;2023-09-18T00:11:43;15.92;58.61
76104;HTU21D;64831;44.870;37.336;2023-09-18T00:14:09;15.90;58.47
76104;HTU21D;64831;44.870;37.336;2023-09-18T00:16:35;15.87;58.49
76104;HTU21D;64831;44.870;37.336;2023-09-18T00:19:01;15.82;58.50
76104;HTU21D;64831;44.870;37.336;2023-09-18T00:21:28;15.78;58.60
76104;HTU21D;64831;44.870;37.336;2023-09-18T00:23:56;15.72;58.74
76104;HTU21D;64831;44.870;37.336;2023-09-18T00:26:24;15.65;58.61
76104;HTU21D;64831;44.870;37.336;2023-09-18T00:28:52;15.60;58.83
76104;HTU21D;64831;44.870;37.336;2023-09-18T00:31:19;15.54;59.35
76104;HTU21D;64831;44.870;37.336;2023-09-18T00:33:45;15.49;59.37
76104;HTU21D;64831;44.870;37.336;2023-09-18T00:36:12;15.44;59.54
76104;HTU21D;64831;44.870;37.336;2023-09-18T00:38:37;15.36;59.61
76104;HTU21D;64831;44.870;37.336;2023-09-18T00:41:03;15.27;59.83
76104;HTU21D;64831;44.870;37.336;2023-09-18T00:43:30;15.21;59.95
76104;HTU21D;64831;44.870;37.336;2023-09-18T00:45:55;15.12;60.26
76104;HTU21D;64831;44.870;37.336;2023-09-18T00:48:21;15.08;60.47
76104;HTU21D;64831;44.870;37.336;2023-09-18T00:50:48;15.06;60.60
76104;HTU21D;64831;44.870;37.336;2023-09-18T00:53:22;14.99;61.36
76104;HTU21D;64831;44.870;37.336;2023-09-18T00:55:50;14.96;61.48
76104;HTU21D;64831;44.870;37.336;2023-09-18T00:58:18;14.91;63.18
76104;HTU21D;64831;44.870;37.336;2023-09-18T01:00:44;14.82;63.17
76104;HTU21D;64831;44.870;37.336;2023-09-18T01:03:11;14.78;63.21
76104;HTU21D;64831;44.870;37.336;2023-09-18T01:05:38;14.75;63.45
76104;HTU21D;64831;44.870;37.336;2023-09-18T01:08:04;14.72;63.70
76104;HTU21D;64831;44.870;37.336;2023-09-18T01:10:38;14.69;63.94
76104;HTU21D;64831;44.870;37.336;2023-09-18T01:13:11;14.68;63.79
76104;HTU21D;64831;44.870;37.336;2023-09-18T01:15:44;14.62;64.40
76104;HTU21D;64831;44.870;37.336;2023-09-18T01:18:14;14.60;64.60
76104;HTU21D;64831;44.870;37.336;2023-09-18T01:20:40;14.59;64.84
76104;HTU21D;64831;44.870;37.336;2023-09-18T01:23:06;14.60;64.69
76104;HTU21D;64831;44.870;37.336;2023-09-18T01:25:32;14.57;64.98
76104;HTU21D;64831;44.870;37.336;2023-09-18T01:28:00;14.56;65.03
76104;HTU21D;64831;44.870;37.336;2023-09-18T01:30:26;14.57;64.80
76104;HTU21D;64831;44.870;37.336;2023-09-18T01:32:52;14.56;64.72
76104;HTU21D;64831;44.870;37.336;2023-09-18T01:35:19;14.55;65.27
76104;HTU21D;64831;44.870;37.336;2023-09-18T01:37:46;14.56;65.11
76104;HTU21D;64831;44.870;37.336;2023-09-18T01:40:12;14.57;65.40
76104;HTU21D;64831;44.870;37.336;2023-09-18T01:42:39;14.62;65.11
76104;HTU21D;64831;44.870;37.336;2023-09-18T01:45:06;14.68;65.49
76104;HTU21D;64831;44.870;37.336;2023-09-18T01:47:32;14.75;64.90
76104;HTU21D;64831;44.870;37.336;2023-09-18T01:50:03;14.82;64.68
76104;HTU21D;64831;44.870;37.336;2023-09-18T01:52:30;14.89;65.00
76104;HTU21D;64831;44.870;37.336;2023-09-18T01:54:56;14.98;64.50
76104;HTU21D;64831;44.870;37.336;2023-09-18T01:57:22;15.03;64.47
76104;HTU21D;64831;44.870;37.336;2023-09-18T01:59:48;15.09;64.05
76104;HTU21D;64831;44.870;37.336;2023-09-18T02:02:14;15.13;63.88
76104;HTU21D;64831;44.870;37.336;2023-09-18T02:04:41;15.17;63.87
76104;HTU21D;64831;44.870;37.336;2023-09-18T02:07:07;15.22;63.92
76104;HTU21D;64831;44.870;37.336;2023-09-18T02:09:35;15.23;63.84
76104;HTU21D;64831;44.870;37.336;2023-09-18T02:12:00;15.23;63.70
76104;HTU21D;64831;44.870;37.336;2023-09-18T02:14:26;15.23;63.97
76104;HTU21D;64831;44.870;37.336;2023-09-18T02:16:56;15.24;63.88
76104;HTU21D;64831;44.870;37.336;2023-09-18T02:19:22;15.21;63.98
76104;HTU21D;64831;44.870;37.336;2023-09-18T02:21:47;15.22;63.85
76104;HTU21D;64831;44.870;37.336;2023-09-18T02:24:13;15.22;63.91
76104;HTU21D;64831;44.870;37.336;2023-09-18T02:26:39;15.22;63.86
76104;HTU21D;64831;44.870;37.336;2023-09-18T02:29:07;15.24;64.01
76104;HTU21D;64831;44.870;37.336;2023-09-18T02:31:33;15.26;64.08
76104;HTU21D;64831;44.870;37.336;2023-09-18T02:33:59;15.29;63.79
76104;HTU21D;64831;44.870;37.336;2023-09-18T02:36:25;15.33;64.16
76104;HTU21D;64831;44.870;37.336;2023-09-18T02:38:51;15.39;63.87
76104;HTU21D;64831;44.870;37.336;2023-09-18T02:41:17;15.45;63.69
76104;HTU21D;64831;44.870;37.336;2023-09-18T02:43:43;15.52;63.53
76104;HTU21D;64831;44.870;37.336;2023-09-18T02:46:09;15.55;63.55
76104;HTU21D;64831;44.870;37.336;2023-09-18T02:48:35;15.57;63.36
76104;HTU21D;64831;44.870;37.336;2023-09-18T02:51:02;15.61;63.48
76104;HTU21D;64831;44.870;37.336;2023-09-18T02:53:29;15.60;63.39
76104;HTU21D;64831;44.870;37.336;2023-09-18T02:55:58;15.62;63.27
76104;HTU21D;64831;44.870;37.336;2023-09-18T02:58:24;15.62;63.40
76104;HTU21D;64831;44.870;37.336;2023-09-18T03:00:57;15.63;63.56
76104;HTU21D;64831;44.870;37.336;2023-09-18T03:03:27;15.65;63.08
76104;HTU21D;64831;44.870;37.336;2023-09-18T03:05:53;15.63;63.37
76104;HTU21D;64831;44.870;37.336;2023-09-18T03:08:18;15.65;63.19
76104;HTU21D;64831;44.870;37.336;2023-09-18T03:10:45;15.60;63.44
76104;HTU21D;64831;44.870;37.336;2023-09-18T03:13:13;15.59;63.42
76104;HTU21D;64831;44.870;37.336;2023-09-18T03:15:39;15.55;63.62
76104;HTU21D;64831;44.870;37.336;2023-09-18T03:18:06;15.52;63.60
76104;HTU21D;64831;44.870;37.336;2023-09-18T03:20:35;15.52;63.59
76104;HTU21D;64831;44.870;37.336;2023-09-18T03:23:02;15.51;63.60
76104;HTU21D;64831;44.870;37.336;2023-09-18T03:25:28;15.49;63.76
76104;HTU21D;64831;44.870;37.336;2023-09-18T03:27:56;15.48;63.62
76104;HTU21D;64831;44.870;37.336;2023-09-18T03:30:26;15.49;63.48
76104;HTU21D;64831;44.870;37.336;2023-09-18T03:32:53;15.47;64.05
76104;HTU21D;64831;44.870;37.336;2023-09-18T03:35:20;15.48;63.56
76104;HTU21D;64831;44.870;37.336;2023-09-18T03:37:51;15.48;63.93
76104;HTU21D;64831;44.870;37.336;2023-09-18T03:40:19;15.47;64.18
76104;HTU21D;64831;44.870;37.336;2023-09-18T03:42:45;15.52;63.76
76104;HTU21D;64831;44.870;37.336;2023-09-18T03:45:12;15.54;63.59
76104;HTU21D;64831;44.870;37.336;2023-09-18T03:47:41;15.56;63.56
76104;HTU21D;64831;44.870;37.336;2023-09-18T03:50:09;15.58;63.45
76104;HTU21D;64831;44.870;37.336;2023-09-18T03:52:36;15.62;63.67
76104;HTU21D;64831;44.870;37.336;2023-09-18T03:55:02;15.72;63.82
76104;HTU21D;64831;44.870;37.336;2023-09-18T03:57:28;15.83;63.81
76104;HTU21D;64831;44.870;37.336;2023-09-18T03:59:54;15.96;63.67
76104;HTU21D;64831;44.870;37.336;2023-09-18T04:02:23;16.08;63.50
76104;HTU21D;64831;44.870;37.336;2023-09-18T04:04:51;16.20;63.09
76104;HTU21D;64831;44.870;37.336;2023-09-18T04:07:18;16.28;63.03
76104;HTU21D;64831;44.870;37.336;2023-09-18T04:09:45;16.35;62.77
76104;HTU21D;64831;44.870;37.336;2023-09-18T04:12:12;16.40;62.68
76104;HTU21D;64831;44.870;37.336;2023-09-18T04:14:38;16.46;62.63
76104;HTU21D;64831;44.870;37.336;2023-09-18T04:17:05;16.52;62.37
76104;HTU21D;64831;44.870;37.336;2023-09-18T04:19:31;16.58;62.26
76104;HTU21D;64831;44.870;37.336;2023-09-18T04:21:57;16.64;62.06
76104;HTU21D;64831;44.870;37.336;2023-09-18T04:24:25;16.69;61.83
76104;HTU21D;64831;44.870;37.336;2023-09-18T04:26:51;16.74;61.70
76104;HTU21D;64831;44.870;37.336;2023-09-18T04:29:17;16.80;61.44
76104;HTU21D;64831;44.870;37.336;2023-09-18T04:31:44;16.85;61.25
76104;HTU21D;64831;44.870;37.336;2023-09-18T04:34:11;16.90;61.03
76104;HTU21D;64831;44.870;37.336;2023-09-18T04:36:37;16.98;60.72
76104;HTU21D;64831;44.870;37.336;2023-09-18T04:39:05;17.04;60.50
76104;HTU21D;64831;44.870;37.336;2023-09-18T04:41:32;17.11;60.16
76104;HTU21D;64831;44.870;37.336;2023-09-18T04:44:00;17.19;59.79
76104;HTU21D;64831;44.870;37.336;2023-09-18T04:46:27;17.28;59.50
76104;HTU21D;64831;44.870;37.336;2023-09-18T04:48:53;17.37;59.28
76104;HTU21D;64831;44.870;37.336;2023-09-18T04:51:19;17.45;58.94
76104;HTU21D;64831;44.870;37.336;2023-09-18T04:53:45;17.51;58.72
76104;HTU21D;64831;44.870;37.336;2023-09-18T04:56:11;17.60;58.49
76104;HTU21D;64831;44.870;37.336;2023-09-18T04:58:37;17.68;58.30
76104;HTU21D;64831;44.870;37.336;2023-09-18T05:01:04;17.78;58.07
76104;HTU21D;64831;44.870;37.336;2023-09-18T05:03:36;17.91;57.69
76104;HTU21D;64831;44.870;37.336;2023-09-18T05:06:02;18.07;57.55
76104;HTU21D;64831;44.870;37.336;2023-09-18T05:08:31;18.48;57.61
76104;HTU21D;64831;44.870;37.336;2023-09-18T05:10:57;19.11;57.99
76104;HTU21D;64831;44.870;37.336;2023-09-18T05:13:23;19.88;56.16
76104;HTU21D;64831;44.870;37.336;2023-09-18T05:15:49;20.57;55.28
76104;HTU21D;64831;44.870;37.336;2023-09-18T05:18:15;21.25;53.81
76104;HTU21D;64831;44.870;37.336;2023-09-18T05:20:42;21.97;51.29
76104;HTU21D;64831;44.870;37.336;2023-09-18T05:23:07;22.51;49.05
76104;HTU21D;64831;44.870;37.336;2023-09-18T05:25:34;22.91;48.34
76104;HTU21D;64831;44.870;37.336;2023-09-18T05:28:03;23.26;46.85
76104;HTU21D;64831;44.870;37.336;2023-09-18T05:30:32;23.61;46.10
76104;HTU21D;64831;44.870;37.336;2023-09-18T05:33:01;23.94;45.45
76104;HTU21D;64831;44.870;37.336;2023-09-18T05:35:35;24.19;44.29
76104;HTU21D;64831;44.870;37.336;2023-09-18T05:38:05;24.34;42.84
76104;HTU21D;64831;44.870;37.336;2023-09-18T05:40:31;24.33;42.16
76104;HTU21D;64831;44.870;37.336;2023-09-18T05:42:57;24.43;41.65
76104;HTU21D;64831;44.870;37.336;2023-09-18T05:45:24;24.53;41.53
76104;HTU21D;64831;44.870;37.336;2023-09-18T05:47:51;24.68;41.30
76104;HTU21D;64831;44.870;37.336;2023-09-18T05:50:19;24.87;40.97
76104;HTU21D;64831;44.870;37.336;2023-09-18T05:52:47;25.03;40.75
76104;HTU21D;64831;44.870;37.336;2023-09-18T05:55:14;25.08;40.17
76104;HTU21D;64831;44.870;37.336;2023-09-18T05:57:41;25.30;40.26
76104;HTU21D;64831;44.870;37.336;2023-09-18T06:00:07;25.36;39.52
76104;HTU21D;64831;44.870;37.336;2023-09-18T06:02:40;25.56;39.49
76104;HTU21D;64831;44.870;37.336;2023-09-18T06:05:06;25.68;38.89
76104;HTU21D;64831;44.870;37.336;2023-09-18T06:07:32;25.67;38.49
76104;HTU21D;64831;44.870;37.336;2023-09-18T06:09:58;25.72;38.07
76104;HTU21D;64831;44.870;37.336;2023-09-18T06:12:25;25.82;38.19
76104;HTU21D;64831;44.870;37.336;2023-09-18T06:14:51;25.93;38.00
76104;HTU21D;64831;44.870;37.336;2023-09-18T06:17:17;25.75;36.83
76104;HTU21D;64831;44.870;37.336;2023-09-18T06:19:44;25.74;37.55
76104;HTU21D;64831;44.870;37.336;2023-09-18T06:22:11;25.98;36.78
76104;HTU21D;64831;44.870;37.336;2023-09-18T06:24:38;26.02;36.87
76104;HTU21D;64831;44.870;37.336;2023-09-18T06:27:04;26.10;36.95
76104;HTU21D;64831;44.870;37.336;2023-09-18T06:29:31;26.42;36.98
76104;HTU21D;64831;44.870;37.336;2023-09-18T06:31:57;26.56;36.49
76104;HTU21D;64831;44.870;37.336;2023-09-18T06:34:23;26.67;35.95
76104;HTU21D;64831;44.870;37.336;2023-09-18T06:36:50;26.76;35.77
76104;HTU21D;64831;44.870;37.336;2023-09-18T06:39:16;26.85;35.21
76104;HTU21D;64831;44.870;37.336;2023-09-18T06:41:42;26.90;35.59
76104;HTU21D;64831;44.870;37.336;2023-09-18T06:44:11;27.07;35.43
76104;HTU21D;64831;44.870;37.336;2023-09-18T06:46:37;27.22;35.08
76104;HTU21D;64831;44.870;37.336;2023-09-18T06:49:03;27.29;34.24
76104;HTU21D;64831;44.870;37.336;2023-09-18T06:51:29;27.40;34.54
76104;HTU21D;64831;44.870;37.336;2023-09-18T06:53:55;27.42;34.34
76104;HTU21D;64831;44.870;37.336;2023-09-18T06:56:25;27.40;34.01
76104;HTU21D;64831;44.870;37.336;2023-09-18T06:58:51;27.47;34.08
76104;HTU21D;64831;44.870;37.336;2023-09-18T07:01:18;27.40;33.96
76104;HTU21D;64831;44.870;37.336;2023-09-18T07:03:47;27.61;33.34
76104;HTU21D;64831;44.870;37.336;2023-09-18T07:06:14;27.47;33.13
76104;HTU21D;64831;44.870;37.336;2023-09-18T07:08:46;27.38;33.73
76104;HTU21D;64831;44.870;37.336;2023-09-18T07:11:15;27.13;33.57
76104;HTU21D;64831;44.870;37.336;2023-09-18T07:13:41;27.49;33.87
76104;HTU21D;64831;44.870;37.336;2023-09-18T07:16:09;27.72;33.93
76104;HTU21D;64831;44.870;37.336;2023-09-18T07:18:35;27.95;33.43
76104;HTU21D;64831;44.870;37.336;2023-09-18T07:21:03;27.91;32.64
76104;HTU21D;64831;44.870;37.336;2023-09-18T07:23:29;27.82;33.12
76104;HTU21D;64831;44.870;37.336;2023-09-18T07:25:55;27.81;32.98
76104;HTU21D;64831;44.870;37.336;2023-09-18T07:28:24;27.85;33.15
76104;HTU21D;64831;44.870;37.336;2023-09-18T07:30:50;27.93;33.14
76104;HTU21D;64831;44.870;37.336;2023-09-18T07:33:16;28.05;33.05
76104;HTU21D;64831;44.870;37.336;2023-09-18T07:35:47;28.26;32.54
76104;HTU21D;64831;44.870;37.336;2023-09-18T07:38:14;28.43;32.67
76104;HTU21D;64831;44.870;37.336;2023-09-18T07:40:40;28.56;32.15
76104;HTU21D;64831;44.870;37.336;2023-09-18T07:43:06;28.63;32.00
76104;HTU21D;64831;44.870;37.336;2023-09-18T07:45:33;28.84;31.83
76104;HTU21D;64831;44.870;37.336;2023-09-18T07:47:59;29.04;31.67
76104;HTU21D;64831;44.870;37.336;2023-09-18T07:50:25;29.18;31.10
76104;HTU21D;64831;44.870;37.336;2023-09-18T07:52:51;29.21;30.72
76104;HTU21D;64831;44.870;37.336;2023-09-18T07:55:17;29.07;30.74
76104;HTU21D;64831;44.870;37.336;2023-09-18T07:57:43;29.17;30.51
76104;HTU21D;64831;44.870;37.336;2023-09-18T08:00:11;29.37;30.35
76104;HTU21D;64831;44.870;37.336;2023-09-18T08:02:39;29.27;29.71
76104;HTU21D;64831;44.870;37.336;2023-09-18T08:05:05;28.79;29.55
76104;HTU21D;64831;44.870;37.336;2023-09-18T08:07:33;28.83;29.87
76104;HTU21D;64831;44.870;37.336;2023-09-18T08:09:59;28.74;30.33
76104;HTU21D;64831;44.870;37.336;2023-09-18T08:12:24;28.92;29.90
76104;HTU21D;64831;44.870;37.336;2023-09-18T08:14:51;28.78;29.45
76104;HTU21D;64831;44.870;37.336;2023-09-18T08:17:17;28.58;29.70
76104;HTU21D;64831;44.870;37.336;2023-09-18T08:19:43;28.75;29.59
76104;HTU21D;64831;44.870;37.336;2023-09-18T08:22:10;28.58;28.90
76104;HTU21D;64831;44.870;37.336;2023-09-18T08:24:40;28.70;28.86
76104;HTU21D;64831;44.870;37.336;2023-09-18T08:27:07;28.93;28.75
76104;HTU21D;64831;44.870;37.336;2023-09-18T08:29:33;29.02;28.78
76104;HTU21D;64831;44.870;37.336;2023-09-18T08:31:59;28.91;28.55
76104;HTU21D;64831;44.870;37.336;2023-09-18T08:34:25;28.87;28.17
76104;HTU21D;64831;44.870;37.336;2023-09-18T08:36:52;28.97;28.41
76104;HTU21D;64831;44.870;37.336;2023-09-18T08:39:18;29.05;28.39
76104;HTU21D;64831;44.870;37.336;2023-09-18T08:41:45;28.99;28.27
76104;HTU21D;64831;44.870;37.336;2023-09-18T08:44:15;29.07;28.24
76104;HTU21D;64831;44.870;37.336;2023-09-18T08:46:44;29.20;28.27
76104;HTU21D;64831;44.870;37.336;2023-09-18T08:49:11;29.29;28.11
76104;HTU21D;64831;44.870;37.336;2023-09-18T08:51:38;29.59;27.78
76104;HTU21D;64831;44.870;37.336;2023-09-18T08:54:05;29.65;27.33
76104;HTU21D;64831;44.870;37.336;2023-09-18T08:56:32;29.50;27.01
76104;HTU21D;64831;44.870;37.336;2023-09-18T08:59:00;29.61;26.93
76104;HTU21D;64831;44.870;37.336;2023-09-18T09:01:25;29.59;27.16
76104;HTU21D;64831;44.870;37.336;2023-09-18T09:03:51;29.59;26.26
76104;HTU21D;64831;44.870;37.336;2023-09-18T09:06:17;29.50;26.78
76104;HTU21D;64831;44.870;37.336;2023-09-18T09:08:43;29.71;26.78
76104;HTU21D;64831;44.870;37.336;2023-09-18T09:11:10;29.65;27.09
76104;HTU21D;64831;44.870;37.336;2023-09-18T09:13:36;29.92;27.03
76104;HTU21D;64831;44.870;37.336;2023-09-18T09:16:02;29.92;26.75
76104;HTU21D;64831;44.870;37.336;2023-09-18T09:18:29;29.59;25.79
76104;HTU21D;64831;44.870;37.336;2023-09-18T09:21:01;29.63;25.97
76104;HTU21D;64831;44.870;37.336;2023-09-18T09:23:43;29.59;26.51
76104;HTU21D;64831;44.870;37.336;2023-09-18T09:26:15;29.49;25.94
76104;HTU21D;64831;44.870;37.336;2023-09-18T09:28:43;29.50;26.35
76104;HTU21D;64831;44.870;37.336;2023-09-18T09:31:10;29.54;26.49
76104;HTU21D;64831;44.870;37.336;2023-09-18T09:33:37;29.71;26.30
76104;HTU21D;64831;44.870;37.336;2023-09-18T09:36:07;29.68;26.00
76104;HTU21D;64831;44.870;37.336;2023-09-18T09:38:34;29.80;25.74
76104;HTU21D;64831;44.870;37.336;2023-09-18T09:41:01;29.85;25.68
76104;HTU21D;64831;44.870;37.336;2023-09-18T09:43:30;29.74;25.70
76104;HTU21D;64831;44.870;37.336;2023-09-18T09:45:57;29.58;25.91
76104;HTU21D;64831;44.870;37.336;2023-09-18T09:48:24;29.42;25.95
76104;HTU21D;64831;44.870;37.336;2023-09-18T09:50:51;29.60;25.80
76104;HTU21D;64831;44.870;37.336;2023-09-18T09:53:18;29.39;25.32
76104;HTU21D;64831;44.870;37.336;2023-09-18T09:55:44;29.27;25.48
76104;HTU21D;64831;44.870;37.336;2023-09-18T09:58:11;28.94;25.89
76104;HTU21D;64831;44.870;37.336;2023-09-18T10:00:41;28.56;26.20
76104;HTU21D;64831;44.870;37.336;2023-09-18T10:03:10;28.45;26.51
76104;HTU21D;64831;44.870;37.336;2023-09-18T10:05:38;28.26;27.04
76104;HTU21D;64831;44.870;37.336;2023-09-18T10:08:08;28.20;27.20
76104;HTU21D;64831;44.870;37.336;2023-09-18T10:10:38;27.99;27.36
76104;HTU21D;64831;44.870;37.336;2023-09-18T10:15:51;27.87;27.52
76104;HTU21D;64831;44.870;37.336;2023-09-18T10:18:28;27.87;27.41
76104;HTU21D;64831;44.870;37.336;2023-09-18T10:21:41;27.84;27.55
76104;HTU21D;64831;44.870;37.336;2023-09-18T10:26:32;27.78;28.16
76104;HTU21D;64831;44.870;37.336;2023-09-18T10:29:04;27.76;28.09
76104;HTU21D;64831;44.870;37.336;2023-09-18T10:31:36;27.65;27.62
76104;HTU21D;64831;44.870;37.336;2023-09-18T10:34:05;27.49;27.76
76104;HTU21D;64831;44.870;37.336;2023-09-18T10:36:33;27.54;27.56
76104;HTU21D;64831;44.870;37.336;2023-09-18T10:39:00;27.42;27.26
76104;HTU21D;64831;44.870;37.336;2023-09-18T10:41:26;27.36;27.42
76104;HTU21D;64831;44.870;37.336;2023-09-18T10:43:54;27.29;27.62
76104;HTU21D;64831;44.870;37.336;2023-09-18T10:46:25;27.14;27.66
76104;HTU21D;64831;44.870;37.336;2023-09-18T10:48:51;27.10;27.71
76104;HTU21D;64831;44.870;37.336;2023-09-18T10:51:22;27.08;27.89
76104;HTU21D;64831;44.870;37.336;2023-09-18T10:53:49;27.11;27.90
76104;HTU21D;64831;44.870;37.336;2023-09-18T10:56:16;27.05;27.71
76104;HTU21D;64831;44.870;37.336;2023-09-18T10:58:43;26.92;27.87
76104;HTU21D;64831;44.870;37.336;2023-09-18T11:01:12;26.86;28.00
76104;HTU21D;64831;44.870;37.336;2023-09-18T11:03:38;26.90;28.00
76104;HTU21D;64831;44.870;37.336;2023-09-18T11:06:12;27.05;27.87
76104;HTU21D;64831;44.870;37.336;2023-09-18T11:08:56;27.07;27.71
76104;HTU21D;64831;44.870;37.336;2023-09-18T11:11:27;26.96;27.91
76104;HTU21D;64831;44.870;37.336;2023-09-18T11:13:56;26.80;28.17
76104;HTU21D;64831;44.870;37.336;2023-09-18T11:21:28;26.85;28.41
76104;HTU21D;64831;44.870;37.336;2023-09-18T11:24:17;26.94;27.57
76104;HTU21D;64831;44.870;37.336;2023-09-18T11:26:45;26.95;27.83
76104;HTU21D;64831;44.870;37.336;2023-09-18T11:29:14;26.92;27.74
76104;HTU21D;64831;44.870;37.336;2023-09-18T11:31:53;26.86;27.80
76104;HTU21D;64831;44.870;37.336;2023-09-18T11:34:22;26.91;28.00
76104;HTU21D;64831;44.870;37.336;2023-09-18T11:36:49;26.93;27.94
76104;HTU21D;64831;44.870;37.336;2023-09-18T11:39:35;26.95;27.92
76104;HTU21D;64831;44.870;37.336;2023-09-18T11:42:12;26.91;27.94
76104;HTU21D;64831;44.870;37.336;2023-09-18T11:44:39;26.91;28.19
76104;HTU21D;64831;44.870;37.336;2023-09-18T11:47:13;26.85;28.46
76104;HTU21D;64831;44.870;37.336;2023-09-18T11:52:22;26.86;28.32
76104;HTU21D;64831;44.870;37.336;2023-09-18T11:54:48;26.73;28.16
76104;HTU21D;64831;44.870;37.336;2023-09-18T11:57:14;26.65;28.22
76104;HTU21D;64831;44.870;37.336;2023-09-18T11:59:41;26.66;28.24
76104;HTU21D;64831;44.870;37.336;2023-09-18T12:02:28;26.57;27.77
76104;HTU21D;64831;44.870;37.336;2023-09-18T12:05:26;26.54;27.90
76104;HTU21D;64831;44.870;37.336;2023-09-18T12:07:52;26.52;28.31
76104;HTU21D;64831;44.870;37.336;2023-09-18T12:10:20;26.47;28.33
76104;HTU21D;64831;44.870;37.336;2023-09-18T12:12:49;26.42;28.23
76104;HTU21D;64831;44.870;37.336;2023-09-18T12:15:17;26.40;28.46
76104;HTU21D;64831;44.870;37.336;2023-09-18T12:17:45;26.36;28.65
76104;HTU21D;64831;44.870;37.336;2023-09-18T12:20:18;26.40;28.84
76104;HTU21D;64831;44.870;37.336;2023-09-18T12:22:50;26.47;29.11
76104;HTU21D;64831;44.870;37.336;2023-09-18T12:25:16;26.52;28.87
76104;HTU21D;64831;44.870;37.336;2023-09-18T12:27:44;26.41;28.71
76104;HTU21D;64831;44.870;37.336;2023-09-18T12:30:11;26.33;29.07
76104;HTU21D;64831;44.870;37.336;2023-09-18T12:32:39;26.35;29.01
76104;HTU21D;64831;44.870;37.336;2023-09-18T12:35:08;26.32;29.13
76104;HTU21D;64831;44.870;37.336;2023-09-18T12:37:39;26.31;29.38
76104;HTU21D;64831;44.870;37.336;2023-09-18T12:40:06;26.25;29.32
76104;HTU21D;64831;44.870;37.336;2023-09-18T12:42:39;26.21;29.65
76104;HTU21D;64831;44.870;37.336;2023-09-18T12:45:06;26.19;29.69
76104;HTU21D;64831;44.870;37.336;2023-09-18T12:47:33;26.07;29.87
76104;HTU21D;64831;44.870;37.336;2023-09-18T12:50:03;26.11;29.92
76104;HTU21D;64831;44.870;37.336;2023-09-18T12:52:30;26.16;29.82
76104;HTU21D;64831;44.870;37.336;2023-09-18T12:54:57;26.13;29.85
76104;HTU21D;64831;44.870;37.336;2023-09-18T12:57:25;26.12;29.90
76104;HTU21D;64831;44.870;37.336;2023-09-18T12:59:51;26.08;29.82
76104;HTU21D;64831;44.870;37.336;2023-09-18T13:02:19;26.06;29.79
76104;HTU21D;64831;44.870;37.336;2023-09-18T13:04:53;26.04;29.74
76104;HTU21D;64831;44.870;37.336;2023-09-18T13:07:19;25.96;29.79
76104;HTU21D;64831;44.870;37.336;2023-09-18T13:10:01;25.88;29.97
76104;HTU21D;64831;44.870;37.336;2023-09-18T13:12:45;25.77;30.29
76104;HTU21D;64831;44.870;37.336;2023-09-18T13:15:11;25.72;30.35
76104;HTU21D;64831;44.870;37.336;2023-09-18T13:17:39;25.75;30.42
76104;HTU21D;64831;44.870;37.336;2023-09-18T13:20:14;25.72;29.87
76104;HTU21D;64831;44.870;37.336;2023-09-18T13:22:41;25.67;30.14
76104;HTU21D;64831;44.870;37.336;2023-09-18T13:25:10;25.61;30.12
76104;HTU21D;64831;44.870;37.336;2023-09-18T13:27:37;25.53;30.08
76104;HTU21D;64831;44.870;37.336;2023-09-18T13:30:06;25.51;30.26
76104;HTU21D;64831;44.870;37.336;2023-09-18T13:32:34;25.49;30.35
76104;HTU21D;64831;44.870;37.336;2023-09-18T13:35:02;25.51;30.55
76104;HTU21D;64831;44.870;37.336;2023-09-18T13:37:31;25.40;29.68
76104;HTU21D;64831;44.870;37.336;2023-09-18T13:39:56;25.34;29.77
76104;HTU21D;64831;44.870;37.336;2023-09-18T13:42:22;25.36;29.88
76104;HTU21D;64831;44.870;37.336;2023-09-18T13:44:48;25.30;29.80
76104;HTU21D;64831;44.870;37.336;2023-09-18T13:47:15;25.27;30.08
76104;HTU21D;64831;44.870;37.336;2023-09-18T13:49:41;25.20;30.32
76104;HTU21D;64831;44.870;37.336;2023-09-18T13:52:07;25.20;30.38
76104;HTU21D;64831;44.870;37.336;2023-09-18T13:54:33;25.15;30.57
76104;HTU21D;64831;44.870;37.336;2023-09-18T13:56:59;25.13;30.71
76104;HTU21D;64831;44.870;37.336;2023-09-18T13:59:25;25.15;30.91
76104;HTU21D;64831;44.870;37.336;2023-09-18T14:01:51;25.10;30.96
76104;HTU21D;64831;44.870;37.336;2023-09-18T14:04:17;25.06;30.80
76104;HTU21D;64831;44.870;37.336;2023-09-18T14:06:43;25.04;30.85
76104;HTU21D;64831;44.870;37.336;2023-09-18T14:09:09;25.02;30.98
76104;HTU21D;64831;44.870;37.336;2023-09-18T14:11:36;25.02;30.87
76104;HTU21D;64831;44.870;37.336;2023-09-18T14:14:03;24.99;30.93
76104;HTU21D;64831;44.870;37.336;2023-09-18T14:16:29;24.92;31.20
76104;HTU21D;64831;44.870;37.336;2023-09-18T14:18:59;24.87;31.40
76104;HTU21D;64831;44.870;37.336;2023-09-18T14:21:25;24.86;31.29
76104;HTU21D;64831;44.870;37.336;2023-09-18T14:23:53;24.80;31.06
76104;HTU21D;64831;44.870;37.336;2023-09-18T14:26:19;24.79;30.99
76104;HTU21D;64831;44.870;37.336;2023-09-18T14:28:45;24.79;31.12
76104;HTU21D;64831;44.870;37.336;2023-09-18T14:31:12;24.77;31.23
76104;HTU21D;64831;44.870;37.336;2023-09-18T14:33:38;24.72;31.20
76104;HTU21D;64831;44.870;37.336;2023-09-18T14:36:04;24.70;31.00
76104;HTU21D;64831;44.870;37.336;2023-09-18T14:38:30;24.69;31.03
76104;HTU21D;64831;44.870;37.336;2023-09-18T14:40:56;24.66;31.00
76104;HTU21D;64831;44.870;37.336;2023-09-18T14:43:28;24.64;31.11
76104;HTU21D;64831;44.870;37.336;2023-09-18T14:45:54;24.59;31.20
76104;HTU21D;64831;44.870;37.336;2023-09-18T14:48:23;24.56;31.36
76104;HTU21D;64831;44.870;37.336;2023-09-18T14:50:56;24.53;31.59
76104;HTU21D;64831;44.870;37.336;2023-09-18T14:53:22;24.51;31.58
76104;HTU21D;64831;44.870;37.336;2023-09-18T14:55:48;24.48;31.55
76104;HTU21D;64831;44.870;37.336;2023-09-18T14:58:14;24.45;31.57
76104;HTU21D;64831;44.870;37.336;2023-09-18T15:00:40;24.39;31.65
76104;HTU21D;64831;44.870;37.336;2023-09-18T15:03:06;24.39;31.70
76104;HTU21D;64831;44.870;37.336;2023-09-18T15:05:32;24.36;31.74
76104;HTU21D;64831;44.870;37.336;2023-09-18T15:07:58;24.30;31.77
76104;HTU21D;64831;44.870;37.336;2023-09-18T15:10:24;24.25;31.78
76104;HTU21D;64831;44.870;37.336;2023-09-18T15:12:50;24.20;31.76
76104;HTU21D;64831;44.870;37.336;2023-09-18T15:15:16;24.17;31.78
76104;HTU21D;64831;44.870;37.336;2023-09-18T15:17:42;24.13;31.76
76104;HTU21D;64831;44.870;37.336;2023-09-18T15:20:08;24.09;31.89